Time;durP1;ratioP1;P1;durP2;ratioP2;P2;SDS_P1;SDS_P2;PMS_P1;PMS_P2;Temp;Humidity;BMP_temperature;BMP_pressure;BME280_temperature;BME280_humidity;BME280_pressure;Samples;Min_cycle;Max_cycle;Signal;HPM_P1;HPM_P2
2021/11/27 00:00:19;;;;;;;1.35;1.00;;;5.10;99.90;;;;;;5050843;28;20044;-59
2021/11/27 00:02:45;;;;;;;1.50;0.90;;;5.10;99.90;;;;;;5055980;28;20051;-58
2021/11/27 00:05:12;;;;;;;1.30;0.65;;;5.10;99.90;;;;;;5053777;28;20086;-59
2021/11/27 00:07:38;;;;;;;1.55;0.98;;;5.10;99.90;;;;;;5058269;28;20028;-57
2021/11/27 00:10:08;;;;;;;0.75;0.65;;;5.10;99.90;;;;;;5059767;28;20367;-59
2021/11/27 00:12:34;;;;;;;1.55;0.70;;;5.00;99.90;;;;;;5066076;28;20028;-60
2021/11/27 00:14:59;;;;;;;1.75;0.80;;;5.00;99.90;;;;;;5052295;28;20402;-57
2021/11/27 00:17:25;;;;;;;0.85;0.60;;;4.90;99.90;;;;;;5055771;28;20504;-57
2021/11/27 00:19:51;;;;;;;0.95;0.60;;;4.90;99.90;;;;;;5055960;28;20533;-55
2021/11/27 00:22:17;;;;;;;0.80;0.60;;;4.90;99.90;;;;;;5060699;28;20425;-59
2021/11/27 00:24:42;;;;;;;1.45;0.82;;;4.90;99.90;;;;;;5057172;28;20164;-57
2021/11/27 00:27:08;;;;;;;3.50;0.70;;;4.90;99.90;;;;;;5072590;28;20024;-57
2021/11/27 00:29:34;;;;;;;1.05;0.82;;;4.90;99.90;;;;;;5061169;28;20071;-58
2021/11/27 00:31:59;;;;;;;2.13;0.73;;;4.90;99.90;;;;;;5059469;28;20024;-57
2021/11/27 00:34:25;;;;;;;4.00;1.05;;;4.80;99.90;;;;;;5055051;28;20039;-59
2021/11/27 00:36:52;;;;;;;0.70;0.70;;;4.80;99.90;;;;;;5064236;28;20045;-59
2021/11/27 00:39:19;;;;;;;0.82;0.70;;;4.80;99.90;;;;;;5049024;28;20074;-59
2021/11/27 00:41:45;;;;;;;1.27;0.90;;;4.80;99.90;;;;;;5053126;28;20040;-57
2021/11/27 00:44:10;;;;;;;1.48;0.90;;;4.80;99.90;;;;;;5050530;28;20033;-56
2021/11/27 00:46:36;;;;;;;1.10;0.90;;;4.80;99.90;;;;;;5050092;28;20021;-60
2021/11/27 00:49:02;;;;;;;2.80;0.70;;;4.80;99.90;;;;;;5060840;28;20028;-57
2021/11/27 00:51:28;;;;;;;0.88;0.70;;;4.80;99.90;;;;;;5063394;28;20199;-57
2021/11/27 00:53:54;;;;;;;3.10;1.05;;;4.90;99.90;;;;;;5051380;28;20103;-57
2021/11/27 00:56:20;;;;;;;1.90;1.05;;;4.90;99.90;;;;;;5058481;28;20499;-58
2021/11/27 00:58:47;;;;;;;1.48;0.82;;;4.80;99.90;;;;;;5053333;28;20103;-55
2021/11/27 01:01:18;;;;;;;3.47;0.90;;;4.90;99.90;;;;;;5052977;28;20156;-57
2021/11/27 01:03:46;;;;;;;1.80;0.77;;;4.90;99.90;;;;;;5051257;28;20500;-58
2021/11/27 01:06:14;;;;;;;0.80;0.80;;;4.90;99.90;;;;;;5056059;28;20033;-58
2021/11/27 01:08:40;;;;;;;1.92;0.90;;;4.80;99.90;;;;;;5054626;28;20025;-57
2021/11/27 01:11:11;;;;;;;1.63;0.75;;;4.90;99.90;;;;;;5051453;28;20045;-59
2021/11/27 01:13:38;;;;;;;0.68;0.57;;;4.90;99.90;;;;;;5051385;28;20024;-57
2021/11/27 01:16:04;;;;;;;0.50;0.50;;;5.00;99.90;;;;;;5051070;28;20034;-59
2021/11/27 01:18:30;;;;;;;1.20;0.60;;;5.00;99.90;;;;;;5050965;28;20067;-59
2021/11/27 01:21:01;;;;;;;0.77;0.70;;;5.00;99.90;;;;;;5053503;28;20479;-58
2021/11/27 01:23:27;;;;;;;0.52;0.52;;;5.00;99.90;;;;;;5052006;28;20024;-57
2021/11/27 01:25:53;;;;;;;0.60;0.60;;;5.00;99.90;;;;;;5056496;28;20403;-58
2021/11/27 01:28:20;;;;;;;0.75;0.70;;;5.10;99.90;;;;;;5051857;28;20021;-55
2021/11/27 01:30:52;;;;;;;0.52;0.52;;;5.10;99.90;;;;;;5055732;28;20032;-59
2021/11/27 01:33:18;;;;;;;1.02;0.60;;;5.10;99.90;;;;;;5051558;28;20037;-57
2021/11/27 01:35:44;;;;;;;0.93;0.70;;;5.10;99.90;;;;;;5051429;28;20112;-58
2021/11/27 01:38:10;;;;;;;0.77;0.77;;;5.00;99.90;;;;;;5050282;28;20079;-58
2021/11/27 01:40:36;;;;;;;0.52;0.50;;;5.10;99.90;;;;;;5049974;28;20036;-57
2021/11/27 01:43:03;;;;;;;0.88;0.80;;;5.10;99.90;;;;;;5048469;28;20086;-57
2021/11/27 01:45:30;;;;;;;0.82;0.75;;;5.10;99.90;;;;;;5051107;28;20093;-55
2021/11/27 01:48:02;;;;;;;0.65;0.50;;;5.10;99.90;;;;;;5057178;28;20044;-55
2021/11/27 01:50:31;;;;;;;0.95;0.70;;;5.10;99.90;;;;;;5059926;28;20535;-58
2021/11/27 01:52:58;;;;;;;1.08;0.60;;;5.10;99.90;;;;;;5044034;28;20033;-58
2021/11/27 01:55:25;;;;;;;1.52;0.70;;;5.10;99.90;;;;;;5058999;28;20218;-59
2021/11/27 01:57:51;;;;;;;0.60;0.60;;;5.10;99.90;;;;;;5063551;28;20505;-55
2021/11/27 02:00:21;;;;;;;1.17;0.70;;;5.10;99.90;;;;;;5052132;28;20033;-58
2021/11/27 02:02:48;;;;;;;1.17;1.00;;;5.10;99.90;;;;;;5051816;28;20029;-59
2021/11/27 02:05:15;;;;;;;1.13;0.50;;;5.10;99.90;;;;;;5048968;28;20035;-57
2021/11/27 02:07:41;;;;;;;0.73;0.60;;;5.10;99.90;;;;;;5056218;28;20036;-58
2021/11/27 02:10:09;;;;;;;0.50;0.50;;;5.10;99.90;;;;;;5045855;28;20025;-59
2021/11/27 02:12:35;;;;;;;0.50;0.50;;;5.10;99.90;;;;;;5061703;28;20025;-58
2021/11/27 02:15:00;;;;;;;0.65;0.65;;;5.10;99.90;;;;;;5058934;28;20031;-58
2021/11/27 02:17:26;;;;;;;1.05;0.60;;;5.10;99.90;;;;;;5054421;28;20034;-60
2021/11/27 02:19:52;;;;;;;1.00;0.70;;;5.10;99.90;;;;;;5050783;28;20024;-57
2021/11/27 02:22:18;;;;;;;6.45;0.68;;;5.10;99.90;;;;;;5050336;28;20037;-59
2021/11/27 02:24:44;;;;;;;0.98;0.70;;;5.10;99.90;;;;;;5049605;28;20508;-57
2021/11/27 02:27:09;;;;;;;0.95;0.85;;;5.10;99.90;;;;;;5050514;28;20033;-60
2021/11/27 02:29:36;;;;;;;0.95;0.88;;;5.00;99.90;;;;;;5050963;28;20032;-57
2021/11/27 02:32:04;;;;;;;1.25;0.80;;;5.10;99.90;;;;;;5051664;28;20025;-58
2021/11/27 02:34:30;;;;;;;0.60;0.60;;;5.00;99.90;;;;;;5050835;28;20032;-60
2021/11/27 02:36:59;;;;;;;0.70;0.70;;;5.10;99.90;;;;;;5050655;28;20448;-58
2021/11/27 02:39:26;;;;;;;0.88;0.60;;;5.00;99.90;;;;;;5047193;28;20024;-58
2021/11/27 02:41:53;;;;;;;1.00;0.60;;;5.00;99.90;;;;;;5048440;28;20380;-58
2021/11/27 02:44:23;;;;;;;1.02;0.60;;;5.10;99.90;;;;;;5048238;28;20052;-55
2021/11/27 02:46:49;;;;;;;0.82;0.45;;;5.10;99.90;;;;;;5050056;28;20021;-59
2021/11/27 02:49:15;;;;;;;0.50;0.50;;;5.10;99.90;;;;;;5048382;28;20052;-54
2021/11/27 02:51:41;;;;;;;0.40;0.40;;;5.10;99.90;;;;;;5046947;28;20029;-58
2021/11/27 02:54:06;;;;;;;0.75;0.47;;;5.10;99.90;;;;;;5058650;28;20033;-56
2021/11/27 02:56:32;;;;;;;1.20;0.50;;;5.10;99.90;;;;;;5048667;28;20037;-59
2021/11/27 02:59:15;;;;;;;0.70;0.50;;;5.20;99.90;;;;;;5049145;28;20040;-58
2021/11/27 03:01:41;;;;;;;0.95;0.77;;;5.20;99.90;;;;;;5050579;28;20030;-60
2021/11/27 03:04:07;;;;;;;1.27;0.60;;;5.10;99.90;;;;;;5050110;28;20040;-59
2021/11/27 03:06:33;;;;;;;2.03;0.73;;;5.10;99.90;;;;;;5013885;28;1049618;-58
2021/11/27 03:09:02;;;;;;;0.88;0.70;;;5.10;99.90;;;;;;5052936;28;20017;-59
2021/11/27 03:11:28;;;;;;;2.67;1.27;;;5.10;99.90;;;;;;5051249;28;20021;-59
2021/11/27 03:13:53;;;;;;;2.33;1.20;;;5.10;99.90;;;;;;5053118;28;20715;-58
2021/11/27 03:16:19;;;;;;;2.28;1.00;;;5.10;99.90;;;;;;5054784;28;20025;-58
2021/11/27 03:18:45;;;;;;;1.00;0.75;;;5.10;99.90;;;;;;5053364;28;20041;-59
2021/11/27 03:21:10;;;;;;;0.70;0.70;;;5.20;99.90;;;;;;5056401;28;20052;-56
2021/11/27 03:23:36;;;;;;;0.80;0.80;;;5.10;99.90;;;;;;5045691;28;20108;-57
2021/11/27 03:26:02;;;;;;;1.33;1.10;;;5.00;99.90;;;;;;5051085;28;20045;-57
2021/11/27 03:28:28;;;;;;;0.73;0.73;;;4.90;99.90;;;;;;5068109;28;20060;-59
2021/11/27 03:30:53;;;;;;;1.10;0.95;;;5.00;99.90;;;;;;5052470;28;20511;-57
2021/11/27 03:33:20;;;;;;;1.20;1.10;;;4.90;99.90;;;;;;5044879;28;20055;-57
2021/11/27 03:35:46;;;;;;;1.58;1.30;;;4.80;99.90;;;;;;5044668;28;20066;-59
2021/11/27 03:38:11;;;;;;;3.67;1.40;;;4.80;99.90;;;;;;5045048;28;20029;-58
2021/11/27 03:40:38;;;;;;;1.70;1.23;;;4.70;99.90;;;;;;5044393;28;20025;-59
2021/11/27 03:43:04;;;;;;;2.88;1.40;;;4.60;99.90;;;;;;5045863;28;20044;-59
2021/11/27 03:45:30;;;;;;;1.45;1.10;;;4.60;99.90;;;;;;5044092;28;20029;-59
2021/11/27 03:48:12;;;;;;;1.73;1.42;;;4.50;99.90;;;;;;5046296;28;20032;-59
2021/11/27 03:50:44;;;;;;;2.63;2.20;;;4.50;99.90;;;;;;5044905;28;20060;-58
2021/11/27 03:53:14;;;;;;;2.53;2.33;;;4.50;99.90;;;;;;5045189;28;20626;-58
2021/11/27 03:55:41;;;;;;;2.28;2.00;;;4.50;99.90;;;;;;5043771;28;20021;-55
2021/11/27 03:58:06;;;;;;;3.42;3.03;;;4.50;99.90;;;;;;5046950;28;20037;-55
2021/11/27 04:00:32;;;;;;;3.17;2.55;;;4.50;99.90;;;;;;5044536;28;20036;-59
2021/11/27 04:02:59;;;;;;;4.20;2.58;;;4.50;99.90;;;;;;5044273;28;20033;-54
2021/11/27 04:05:25;;;;;;;4.38;2.35;;;4.50;99.90;;;;;;5070257;22;20024;-64
2021/11/27 04:07:55;;;;;;;3.47;2.72;;;4.50;99.90;;;;;;5060761;28;20042;-64
2021/11/27 04:10:20;;;;;;;3.30;2.90;;;4.50;99.90;;;;;;5061298;28;20013;-65
2021/11/27 04:12:46;;;;;;;3.08;2.78;;;4.50;99.90;;;;;;5066333;28;20560;-65
2021/11/27 04:15:12;;;;;;;4.40;2.80;;;4.60;99.90;;;;;;5069746;28;20037;-63
2021/11/27 04:17:38;;;;;;;4.50;3.20;;;4.60;99.90;;;;;;5071828;28;20100;-65
2021/11/27 04:20:04;;;;;;;5.25;3.42;;;4.60;99.90;;;;;;5063636;28;20103;-66
2021/11/27 04:22:30;;;;;;;5.50;3.60;;;4.60;99.90;;;;;;5068757;28;21993;-64
2021/11/27 04:24:55;;;;;;;7.50;3.55;;;4.60;99.90;;;;;;5065866;28;20032;-65
2021/11/27 04:27:21;;;;;;;6.78;3.53;;;4.60;99.90;;;;;;5069209;28;20322;-64
2021/11/27 04:29:46;;;;;;;7.00;3.72;;;4.50;99.90;;;;;;5066634;28;20028;-64
2021/11/27 04:32:12;;;;;;;10.77;3.85;;;4.50;99.90;;;;;;5067194;28;20028;-64
2021/11/27 04:34:37;;;;;;;9.88;4.57;;;4.50;99.90;;;;;;5052002;28;20501;-64
2021/11/27 04:37:03;;;;;;;7.47;4.20;;;4.50;99.90;;;;;;5066659;28;20390;-64
2021/11/27 04:39:29;;;;;;;9.38;3.92;;;4.50;99.90;;;;;;5069497;28;20554;-64
2021/11/27 04:41:54;;;;;;;6.80;4.15;;;4.50;99.90;;;;;;5067770;28;20032;-64
2021/11/27 04:44:20;;;;;;;6.63;4.07;;;4.60;99.90;;;;;;5062230;28;20434;-65
2021/11/27 04:46:45;;;;;;;9.13;4.18;;;4.60;99.90;;;;;;5070789;28;20147;-63
2021/11/27 04:49:11;;;;;;;5.00;3.92;;;4.60;99.90;;;;;;5069647;28;20036;-64
2021/11/27 04:51:36;;;;;;;7.05;4.68;;;4.60;99.90;;;;;;5070387;28;20024;-64
2021/11/27 04:54:02;;;;;;;12.25;4.65;;;4.50;99.90;;;;;;5071536;28;20039;-65
2021/11/27 04:56:27;;;;;;;7.53;5.32;;;4.50;99.90;;;;;;5049673;28;20028;-64
2021/11/27 04:58:53;;;;;;;7.20;4.70;;;4.60;99.90;;;;;;5070784;28;20060;-64
2021/11/27 05:01:22;;;;;;;6.78;4.65;;;4.60;99.90;;;;;;5069635;28;20033;-65
2021/11/27 05:03:47;;;;;;;8.20;4.28;;;4.50;99.90;;;;;;5069042;28;20029;-64
2021/11/27 05:06:13;;;;;;;10.70;5.05;;;4.60;99.90;;;;;;5072111;28;20077;-64
2021/11/27 05:08:39;;;;;;;8.20;5.07;;;4.60;99.90;;;;;;5069111;28;20093;-64
2021/11/27 05:11:04;;;;;;;8.30;4.97;;;4.60;99.90;;;;;;5071736;28;20028;-64
2021/11/27 05:13:30;;;;;;;6.68;4.38;;;4.60;99.90;;;;;;5068195;28;20026;-64
2021/11/27 05:15:55;;;;;;;11.95;4.40;;;4.60;99.90;;;;;;5070419;28;20016;-65
2021/11/27 05:18:21;;;;;;;7.20;4.40;;;4.50;99.90;;;;;;5067374;28;20043;-63
2021/11/27 05:20:47;;;;;;;8.50;3.80;;;4.50;99.90;;;;;;5039538;28;20029;-63
2021/11/27 05:23:12;;;;;;;8.10;4.10;;;4.50;99.90;;;;;;5065301;28;20033;-64
2021/11/27 05:25:38;;;;;;;6.50;3.67;;;4.50;99.90;;;;;;5068085;28;20043;-64
2021/11/27 05:28:03;;;;;;;8.63;4.22;;;4.50;99.90;;;;;;5070529;28;20497;-64
2021/11/27 05:30:29;;;;;;;9.60;5.00;;;4.50;99.90;;;;;;5068724;28;20021;-64
2021/11/27 05:35:24;;;;;;;13.27;4.30;;;4.50;99.90;;;;;;5069576;28;20032;-64
2021/11/27 05:37:50;;;;;;;7.35;3.50;;;4.50;99.90;;;;;;5068709;28;20028;-64
2021/11/27 05:40:16;;;;;;;6.40;3.80;;;4.50;99.90;;;;;;5068670;28;20504;-64
2021/11/27 05:42:45;;;;;;;9.55;4.45;;;4.40;99.90;;;;;;5064004;28;20100;-63
2021/11/27 05:45:12;;;;;;;12.70;4.20;;;4.40;99.90;;;;;;5067836;28;20024;-64
2021/11/27 05:47:38;;;;;;;7.78;4.45;;;4.40;99.90;;;;;;5068681;28;20031;-64
2021/11/27 05:50:05;;;;;;;8.95;4.60;;;4.30;99.90;;;;;;5068140;28;20024;-63
2021/11/27 05:52:30;;;;;;;9.90;4.75;;;4.20;99.90;;;;;;5067779;28;20074;-63
2021/11/27 05:54:56;;;;;;;13.65;5.57;;;4.10;99.90;;;;;;5068660;28;20453;-64
2021/11/27 05:57:21;;;;;;;9.73;5.13;;;4.00;99.90;;;;;;5063209;28;20028;-63
2021/11/27 05:59:47;;;;;;;8.40;5.18;;;4.00;99.90;;;;;;5058555;28;20025;-64
2021/11/27 06:02:14;;;;;;;8.93;5.25;;;4.00;99.90;;;;;;5062469;28;20052;-64
2021/11/27 06:04:39;;;;;;;9.95;4.80;;;3.90;99.90;;;;;;5059847;28;20027;-64
2021/11/27 06:07:05;;;;;;;9.20;5.10;;;3.80;99.90;;;;;;5059956;28;20028;-64
2021/11/27 06:09:30;;;;;;;10.68;6.05;;;3.80;99.90;;;;;;5065024;28;20494;-64
2021/11/27 06:11:56;;;;;;;11.98;7.00;;;3.70;99.90;;;;;;5064479;28;20417;-62
2021/11/27 06:14:21;;;;;;;9.35;5.97;;;3.60;99.90;;;;;;5069676;28;20397;-65
2021/11/27 06:16:47;;;;;;;14.48;6.25;;;3.50;99.90;;;;;;5064179;28;20570;-65
2021/11/27 06:19:13;;;;;;;13.80;6.47;;;3.40;99.90;;;;;;5061928;28;20029;-65
2021/11/27 06:21:39;;;;;;;10.43;5.78;;;3.30;99.90;;;;;;5061769;28;20107;-65
2021/11/27 06:24:08;;;;;;;12.60;6.15;;;3.30;99.90;;;;;;5062745;28;20039;-64
2021/11/27 06:26:33;;;;;;;15.10;6.82;;;3.20;99.90;;;;;;5042459;28;20060;-65
2021/11/27 06:28:59;;;;;;;14.70;6.57;;;3.10;99.90;;;;;;5040059;28;20085;-63
2021/11/27 06:31:25;;;;;;;17.27;7.25;;;3.10;99.90;;;;;;5040914;28;20029;-66
2021/11/27 06:33:50;;;;;;;13.23;6.50;;;3.00;99.90;;;;;;5064351;28;20070;-65
2021/11/27 06:36:16;;;;;;;14.60;7.90;;;2.80;99.90;;;;;;5060510;28;20025;-63
2021/11/27 06:38:42;;;;;;;22.70;7.78;;;2.70;99.90;;;;;;5067974;28;20033;-63
2021/11/27 06:41:08;;;;;;;11.95;6.95;;;2.70;99.90;;;;;;5064833;28;20510;-64
2021/11/27 06:43:34;;;;;;;16.88;7.95;;;2.60;99.90;;;;;;5061714;28;20552;-63
2021/11/27 06:46:00;;;;;;;11.60;7.40;;;2.50;99.90;;;;;;5065121;28;20100;-64
2021/11/27 06:48:26;;;;;;;15.70;8.30;;;2.40;99.90;;;;;;5070813;28;20027;-65
2021/11/27 06:50:52;;;;;;;16.40;8.00;;;2.30;99.90;;;;;;5075106;28;20020;-65
2021/11/27 06:53:17;;;;;;;15.68;8.48;;;2.30;99.90;;;;;;5074969;28;20447;-63
2021/11/27 06:55:43;;;;;;;18.30;8.65;;;2.40;99.90;;;;;;5074811;28;20129;-65
2021/11/27 06:58:09;;;;;;;16.90;8.15;;;2.50;99.90;;;;;;5074761;28;20028;-66
2021/11/27 07:00:34;;;;;;;15.02;9.00;;;2.50;99.90;;;;;;5074057;28;20041;-66
2021/11/27 07:03:01;;;;;;;13.13;8.20;;;2.50;99.90;;;;;;5069721;28;20036;-63
2021/11/27 07:05:26;;;;;;;14.50;8.35;;;2.50;99.90;;;;;;5074979;28;20087;-65
2021/11/27 07:07:52;;;;;;;21.58;10.43;;;2.60;99.90;;;;;;5074213;28;20024;-65
2021/11/27 07:10:18;;;;;;;14.20;7.75;;;2.70;99.90;;;;;;5067756;28;20448;-65
2021/11/27 07:12:43;;;;;;;14.70;8.75;;;2.80;99.90;;;;;;5072908;28;20035;-65
2021/11/27 07:15:09;;;;;;;17.77;9.18;;;2.80;99.90;;;;;;5074840;28;20024;-65
2021/11/27 07:17:35;;;;;;;16.67;8.85;;;2.90;99.90;;;;;;5074503;28;20027;-65
2021/11/27 07:20:03;;;;;;;15.23;8.50;;;2.90;99.90;;;;;;5074277;28;20486;-65
2021/11/27 07:22:28;;;;;;;18.02;8.18;;;2.90;99.90;;;;;;5074317;28;20028;-65
2021/11/27 07:24:54;;;;;;;20.88;9.52;;;2.90;99.90;;;;;;5074024;28;20025;-65
2021/11/27 07:27:20;;;;;;;18.50;8.18;;;2.80;99.90;;;;;;5074388;28;20390;-65
2021/11/27 07:29:45;;;;;;;17.05;9.38;;;2.80;99.90;;;;;;5074529;28;20482;-65
2021/11/27 07:32:11;;;;;;;16.70;8.05;;;2.80;99.90;;;;;;5074423;28;20050;-64
2021/11/27 07:34:36;;;;;;;21.73;8.98;;;2.80;99.90;;;;;;5074356;28;20028;-65
2021/11/27 07:37:03;;;;;;;20.27;8.98;;;2.80;99.90;;;;;;5073657;28;20573;-64
2021/11/27 07:39:28;;;;;;;20.42;8.82;;;2.90;99.90;;;;;;5074192;28;20502;-65
2021/11/27 07:41:54;;;;;;;16.95;8.43;;;2.90;99.90;;;;;;5074186;28;20032;-65
2021/11/27 07:44:20;;;;;;;17.90;8.13;;;2.80;99.90;;;;;;5074226;28;20031;-65
2021/11/27 07:46:52;;;;;;;17.42;8.82;;;2.70;99.90;;;;;;5072731;28;20023;-65
2021/11/27 07:49:18;;;;;;;19.48;10.07;;;2.80;99.90;;;;;;5066666;28;20028;-64
2021/11/27 07:51:44;;;;;;;23.42;12.63;;;2.70;99.90;;;;;;5073155;28;20462;-65
2021/11/27 07:54:10;;;;;;;23.52;12.82;;;2.70;99.90;;;;;;5072330;28;20047;-65
2021/11/27 07:56:35;;;;;;;28.38;16.33;;;2.70;99.90;;;;;;5072438;28;20048;-65
2021/11/27 07:59:01;;;;;;;29.90;16.95;;;2.80;99.90;;;;;;5073266;28;20039;-65
2021/11/27 08:01:27;;;;;;;25.80;14.02;;;2.70;99.90;;;;;;5073862;28;20478;-65
2021/11/27 08:03:52;;;;;;;26.42;13.27;;;2.70;99.90;;;;;;5055716;28;20032;-65
2021/11/27 08:06:18;;;;;;;31.40;14.25;;;2.60;99.90;;;;;;5073253;28;20059;-65
2021/11/27 08:08:43;;;;;;;27.38;15.35;;;2.60;99.90;;;;;;5073473;28;20455;-65
2021/11/27 08:11:10;;;;;;;29.63;14.73;;;2.50;99.90;;;;;;5073533;28;20574;-63
2021/11/27 08:13:37;;;;;;;29.50;13.10;;;2.50;99.90;;;;;;5073622;28;20017;-64
2021/11/27 08:16:03;;;;;;;25.70;12.52;;;2.60;99.90;;;;;;5070611;28;20716;-64
2021/11/27 08:18:28;;;;;;;27.75;12.95;;;2.60;99.90;;;;;;5070719;28;20044;-64
2021/11/27 08:20:54;;;;;;;30.55;12.70;;;2.60;99.90;;;;;;5073373;28;20028;-65
2021/11/27 08:23:20;;;;;;;22.38;11.57;;;2.70;99.90;;;;;;5073380;28;20390;-65
2021/11/27 08:25:46;;;;;;;21.50;11.00;;;2.70;99.90;;;;;;5072662;28;20025;-65
2021/11/27 08:28:12;;;;;;;20.67;11.25;;;2.80;99.90;;;;;;5068671;28;20396;-65
2021/11/27 08:30:39;;;;;;;20.77;10.98;;;2.80;99.90;;;;;;5071274;28;20023;-65
2021/11/27 08:33:04;;;;;;;27.77;11.40;;;2.80;99.90;;;;;;5073222;28;20051;-65
2021/11/27 08:35:30;;;;;;;21.90;11.15;;;2.80;99.90;;;;;;5072498;28;20029;-65
2021/11/27 08:37:56;;;;;;;25.77;11.43;;;2.90;99.90;;;;;;5069745;28;20438;-66
2021/11/27 08:40:22;;;;;;;19.52;10.75;;;2.90;99.90;;;;;;5070746;28;20067;-65
2021/11/27 08:42:47;;;;;;;23.92;9.88;;;2.90;99.90;;;;;;5071619;28;20032;-65
2021/11/27 08:45:13;;;;;;;21.05;10.68;;;3.00;99.90;;;;;;5070984;28;20032;-66
2021/11/27 08:47:40;;;;;;;20.52;9.57;;;3.10;99.90;;;;;;5068327;28;20026;-65
2021/11/27 08:50:07;;;;;;;15.75;8.77;;;3.20;99.90;;;;;;5070481;28;20024;-65
2021/11/27 08:52:33;;;;;;;15.55;8.35;;;3.20;99.90;;;;;;5069103;28;20033;-65
2021/11/27 08:55:00;;;;;;;13.85;8.27;;;3.30;99.90;;;;;;5071814;28;20029;-64
2021/11/27 08:57:25;;;;;;;15.07;8.23;;;3.40;99.90;;;;;;5070863;28;20031;-64
2021/11/27 08:59:51;;;;;;;14.20;7.93;;;3.60;99.90;;;;;;5068226;28;20017;-64
2021/11/27 09:02:17;;;;;;;11.35;6.97;;;3.80;99.90;;;;;;5063240;28;20040;-65
2021/11/27 09:04:43;;;;;;;11.77;6.22;;;4.00;99.90;;;;;;5070494;28;20032;-64
2021/11/27 09:07:09;;;;;;;16.92;5.85;;;4.10;99.90;;;;;;5061090;28;20155;-64
2021/11/27 09:09:35;;;;;;;13.98;5.18;;;4.30;99.90;;;;;;5071350;28;20169;-64
2021/11/27 09:12:02;;;;;;;9.13;5.35;;;4.40;99.90;;;;;;5070104;28;20032;-64
2021/11/27 09:14:28;;;;;;;9.50;4.40;;;4.50;99.90;;;;;;5071552;28;20110;-65
2021/11/27 09:16:54;;;;;;;9.02;4.88;;;4.50;99.90;;;;;;5062921;28;20401;-65
2021/11/27 09:19:20;;;;;;;8.43;4.95;;;4.60;99.90;;;;;;5070312;28;20143;-64
2021/11/27 09:21:46;;;;;;;7.28;4.90;;;4.70;99.90;;;;;;5068195;28;20052;-64
2021/11/27 09:24:12;;;;;;;9.88;5.57;;;4.80;99.90;;;;;;5053827;28;20038;-65
2021/11/27 09:26:38;;;;;;;10.63;5.47;;;4.80;99.90;;;;;;5068336;28;20444;-64
2021/11/27 09:29:14;;;;;;;10.02;5.28;;;4.90;99.90;;;;;;5069037;27;20399;-63
2021/11/27 09:31:40;;;;;;;7.45;4.60;;;4.90;99.90;;;;;;5068486;28;20083;-64
2021/11/27 09:34:07;;;;;;;7.72;4.60;;;5.00;99.90;;;;;;5068188;28;20529;-64
2021/11/27 09:36:34;;;;;;;12.10;5.68;;;5.00;99.90;;;;;;5065485;28;20499;-65
2021/11/27 09:39:00;;;;;;;6.60;4.28;;;5.00;99.90;;;;;;5062527;28;20029;-64
2021/11/27 09:41:29;;;;;;;9.02;4.72;;;5.00;99.90;;;;;;5067227;28;20029;-66
2021/11/27 09:44:03;;;;;;;9.70;5.13;;;5.00;99.90;;;;;;5060258;28;20024;-65
2021/11/27 09:46:31;;;;;;;8.82;5.32;;;5.10;99.90;;;;;;5066007;28;20021;-65
2021/11/27 09:48:59;;;;;;;7.47;4.50;;;5.30;99.90;;;;;;5064726;28;20039;-64
2021/11/27 09:51:27;;;;;;;11.98;5.25;;;5.50;99.90;;;;;;5063097;28;20021;-65
2021/11/27 09:53:54;;;;;;;9.35;4.45;;;5.60;99.90;;;;;;5067625;28;20033;-65
2021/11/27 09:56:21;;;;;;;13.27;4.30;;;5.80;99.90;;;;;;5066509;28;20029;-65
2021/11/27 09:58:47;;;;;;;8.38;3.80;;;6.00;99.90;;;;;;5064770;28;20037;-64
2021/11/27 10:01:18;;;;;;;7.22;3.55;;;6.20;99.90;;;;;;5063613;28;20066;-64
2021/11/27 10:04:01;;;;;;;7.97;3.83;;;6.40;99.90;;;;;;5063412;28;20136;-64
2021/11/27 10:06:30;;;;;;;5.32;3.58;;;6.50;99.90;;;;;;5074130;23;20389;-58
2021/11/27 10:08:56;;;;;;;6.80;3.58;;;6.60;99.90;;;;;;5010937;28;20499;-59
2021/11/27 10:11:22;;;;;;;10.18;4.00;;;6.80;99.90;;;;;;5026434;28;20033;-59
2021/11/27 10:13:48;;;;;;;12.10;3.67;;;6.80;99.90;;;;;;5017509;28;20026;-59
2021/11/27 10:16:13;;;;;;;15.25;4.60;;;6.80;99.90;;;;;;5008181;28;20427;-58
2021/11/27 10:18:39;;;;;;;12.23;4.45;;;6.50;99.90;;;;;;5016613;28;20104;-61
2021/11/27 10:21:22;;;;;;;12.32;5.15;;;6.60;99.90;;;;;;5021086;28;20710;-57
2021/11/27 10:23:50;;;;;;;14.82;5.38;;;6.80;99.90;;;;;;5012843;28;20034;-58
2021/11/27 10:26:36;;;;;;;11.82;4.72;;;6.90;99.90;;;;;;5007535;28;20042;-59
2021/11/27 10:29:17;;;;;;;10.90;5.50;;;7.30;99.90;;;;;;5006700;28;20030;-58
2021/11/27 10:31:44;;;;;;;11.98;5.32;;;7.20;99.90;;;;;;5006980;28;20014;-59
2021/11/27 10:34:21;;;;;;;11.98;5.43;;;7.30;99.90;;;;;;5006881;28;20026;-60
2021/11/27 10:36:47;;;;;;;10.05;4.75;;;7.30;99.90;;;;;;5002297;28;20018;-59
2021/11/27 10:39:12;;;;;;;8.68;5.07;;;7.40;99.90;;;;;;5000746;28;20507;-58
2021/11/27 10:41:59;;;;;;;15.65;6.18;;;7.40;99.90;;;;;;4993972;28;20037;-58
2021/11/27 10:44:36;;;;;;;15.00;5.80;;;7.30;99.90;;;;;;4992962;28;20026;-58
2021/11/27 10:47:28;;;;;;;15.57;6.85;;;7.10;99.90;;;;;;4993652;28;20028;-58
2021/11/27 10:50:02;;;;;;;14.30;5.55;;;7.00;99.90;;;;;;4989110;28;20513;-58
2021/11/27 10:52:28;;;;;;;;;;;6.80;99.90;;;;;;4994478;28;20038;-56
2021/11/27 10:54:58;;;;;;;20.25;8.13;;;6.70;99.90;;;;;;4975800;28;19910;-57
2021/11/27 10:57:34;;;;;;;19.52;8.50;;;6.70;99.90;;;;;;4993095;28;20061;-57
2021/11/27 11:00:05;;;;;;;15.05;6.60;;;6.70;99.90;;;;;;4976505;28;20174;-55
2021/11/27 11:02:34;;;;;;;16.90;7.93;;;6.80;99.90;;;;;;4992320;28;20492;-55
2021/11/27 11:05:14;;;;;;;20.80;6.47;;;6.80;99.90;;;;;;4991371;28;20041;-56
2021/11/27 11:07:51;;;;;;;10.20;5.22;;;6.90;99.90;;;;;;4986887;28;20124;-57
2021/11/27 11:10:19;;;;;;;18.52;6.05;;;7.00;99.90;;;;;;4992131;28;20023;-56
2021/11/27 11:12:58;;;;;;;19.20;5.32;;;7.10;99.90;;;;;;4993071;28;20029;-59
2021/11/27 11:15:31;;;;;;;13.07;4.75;;;7.10;99.90;;;;;;4989282;28;20023;-58
2021/11/27 11:18:10;;;;;;;11.75;4.90;;;7.10;99.90;;;;;;4992510;28;20037;-58
2021/11/27 11:20:38;;;;;;;13.55;4.50;;;7.10;99.90;;;;;;4992666;28;20081;-58
2021/11/27 11:23:10;;;;;;;14.18;4.95;;;7.10;99.90;;;;;;4993020;28;20476;-55
2021/11/27 11:25:58;;;;;;;20.42;6.07;;;7.10;99.90;;;;;;4992746;28;20489;-59
2021/11/27 11:28:27;;;;;;;15.15;5.78;;;7.10;99.90;;;;;;5000435;28;20126;-56
2021/11/27 11:31:00;;;;;;;11.38;4.40;;;7.20;99.90;;;;;;4998968;28;20492;-55
2021/11/27 11:33:26;;;;;;;8.70;4.35;;;7.20;99.90;;;;;;4992974;28;20062;-58
2021/11/27 11:35:52;;;;;;;11.88;4.32;;;7.30;99.90;;;;;;4992251;28;20098;-59
2021/11/27 11:38:19;;;;;;;16.05;5.07;;;7.30;99.90;;;;;;4992373;28;20660;-60
2021/11/27 11:40:46;;;;;;;13.45;3.97;;;7.30;99.90;;;;;;4991630;28;20041;-54
2021/11/27 11:43:13;;;;;;;11.40;3.85;;;7.20;99.90;;;;;;4986061;28;20033;-54
2021/11/27 11:45:39;;;;;;;20.85;4.88;;;7.20;99.90;;;;;;4990150;28;20113;-57
2021/11/27 11:48:06;;;;;;;8.95;4.05;;;7.30;99.90;;;;;;4993208;28;20120;-58
2021/11/27 11:50:36;;;;;;;15.07;3.85;;;7.30;99.90;;;;;;4993885;28;20026;-58
2021/11/27 11:53:09;;;;;;;13.63;4.50;;;7.50;99.90;;;;;;4992584;28;20546;-56
2021/11/27 11:55:37;;;;;;;12.75;3.85;;;7.40;99.90;;;;;;4989905;28;20484;-59
2021/11/27 11:58:04;;;;;;;15.77;5.10;;;7.30;99.90;;;;;;4992000;28;20040;-58
2021/11/27 12:00:38;;;;;;;17.88;3.90;;;7.40;99.90;;;;;;4989539;28;20030;-58
2021/11/27 12:03:10;;;;;;;;;;;7.50;99.90;;;;;;4985849;28;20030;-56
2021/11/27 12:06:03;;;;;;;7.82;4.22;;;7.60;99.90;;;;;;4986341;28;19906;-58
2021/11/27 12:08:53;;;;;;;12.15;4.28;;;7.70;99.90;;;;;;4991695;28;20022;-60
2021/11/27 12:11:41;;;;;;;13.80;3.95;;;7.70;99.90;;;;;;4985756;28;20042;-59
2021/11/27 12:14:34;;;;;;;13.45;3.88;;;7.90;99.90;;;;;;4987752;28;20046;-56
2021/11/27 12:17:19;;;;;;;15.38;4.20;;;7.90;99.90;;;;;;4984463;28;20044;-58
2021/11/27 12:19:47;;;;;;;7.43;2.97;;;7.90;99.90;;;;;;5010842;28;20021;-58
2021/11/27 12:22:37;;;;;;;19.67;4.20;;;7.50;99.90;;;;;;4998899;28;20043;-58
2021/11/27 12:25:14;;;;;;;14.30;3.97;;;7.40;99.90;;;;;;4991771;28;20034;-58
2021/11/27 12:28:06;;;;;;;22.95;5.78;;;7.30;99.90;;;;;;4989143;28;20088;-54
2021/11/27 12:30:41;;;;;;;10.32;3.72;;;7.70;99.90;;;;;;4991545;28;20106;-59
2021/11/27 12:33:07;;;;;;;9.18;3.47;;;8.00;99.90;;;;;;4991790;28;20026;-60
2021/11/27 12:35:32;;;;;;;19.15;4.75;;;7.70;99.90;;;;;;5000613;28;20032;-56
2021/11/27 12:38:15;;;;;;;20.05;5.43;;;7.70;99.90;;;;;;5011791;28;20018;-59
2021/11/27 12:40:48;;;;;;;14.25;4.80;;;7.60;99.90;;;;;;4993845;28;20026;-56
2021/11/27 12:43:16;;;;;;;12.63;3.30;;;7.80;99.90;;;;;;4992519;28;20038;-60
2021/11/27 12:45:44;;;;;;;11.55;4.10;;;8.10;99.90;;;;;;4992838;28;20026;-58
2021/11/27 12:48:28;;;;;;;11.30;3.20;;;8.10;99.90;;;;;;4992646;28;20493;-59
2021/11/27 12:51:16;;;;;;;19.17;3.38;;;8.30;99.90;;;;;;4989969;28;20042;-60
2021/11/27 12:54:02;;;;;;;10.20;3.40;;;8.30;99.90;;;;;;4989190;28;20026;-59
2021/11/27 12:56:43;;;;;;;20.45;6.80;;;8.30;99.90;;;;;;4969423;28;20037;-61
2021/11/27 12:59:15;;;;;;;15.60;3.13;;;8.40;99.90;;;;;;4996838;28;20062;-61